createdAt,value
2023-05-14T00:02:13.242Z,7.03
2023-05-14T00:04:43.081Z,6.53
2023-05-14T00:07:11.795Z,6.47
2023-05-14T00:09:39.609Z,6.03
2023-05-14T00:12:08.102Z,7.05
2023-05-14T00:14:35.967Z,6.60
2023-05-14T00:17:06.958Z,6.85
2023-05-14T00:19:34.903Z,6.20
2023-05-14T00:22:04.233Z,6.28
2023-05-14T00:24:32.232Z,6.47
2023-05-14T00:27:00.036Z,6.68
2023-05-14T00:29:28.053Z,6.30
2023-05-14T00:31:55.977Z,6.25
2023-05-14T00:34:23.912Z,6.45
2023-05-14T00:36:52.195Z,6.80
2023-05-14T00:39:21.473Z,7.00
2023-05-14T00:41:49.647Z,6.90
2023-05-14T00:44:17.457Z,5.97
2023-05-14T00:46:45.452Z,7.05
2023-05-14T00:49:13.442Z,7.22
2023-05-14T00:51:42.484Z,6.30
2023-05-14T00:54:10.599Z,6.57
2023-05-14T00:56:40.042Z,6.57
2023-05-14T00:59:08.052Z,6.63
2023-05-14T01:01:37.046Z,6.90
2023-05-14T01:04:06.048Z,7.32
2023-05-14T01:06:43.500Z,8.05
2023-05-14T01:09:19.040Z,7.15
2023-05-14T01:11:56.847Z,7.07
2023-05-14T01:14:34.249Z,6.43
2023-05-14T01:17:06.227Z,7.10
2023-05-14T01:19:38.535Z,6.63
2023-05-14T01:22:08.204Z,6.55
2023-05-14T01:24:36.205Z,7.32
2023-05-14T01:27:11.550Z,7.60
2023-05-14T01:29:44.318Z,7.25
2023-05-14T01:32:13.546Z,7.20
2023-05-14T01:34:42.207Z,7.63
2023-05-14T01:37:13.993Z,7.40
2023-05-14T01:39:43.261Z,7.47
2023-05-14T01:42:12.095Z,7.53
2023-05-14T01:44:40.200Z,7.23
2023-05-14T01:47:08.116Z,7.57
2023-05-14T01:49:37.150Z,7.90
2023-05-14T01:52:05.343Z,7.82
2023-05-14T01:54:34.742Z,8.10
2023-05-14T01:57:02.540Z,7.83
2023-05-14T01:59:30.572Z,8.57
2023-05-14T02:02:01.972Z,8.07
2023-05-14T02:04:29.866Z,7.65
2023-05-14T02:06:57.593Z,8.35
2023-05-14T02:09:25.692Z,7.72
2023-05-14T02:11:55.114Z,8.80
2023-05-14T02:14:22.896Z,8.00
2023-05-14T02:16:51.433Z,8.07
2023-05-14T02:19:19.249Z,8.02
2023-05-14T02:21:47.154Z,7.83
2023-05-14T02:24:15.111Z,8.67
2023-05-14T02:26:43.156Z,7.93
2023-05-14T02:29:12.361Z,7.93
2023-05-14T02:31:40.286Z,7.90
2023-05-14T02:34:08.112Z,8.10
2023-05-14T02:36:36.036Z,8.67
2023-05-14T02:39:04.625Z,8.43
2023-05-14T02:41:32.403Z,7.60
2023-05-14T02:44:00.217Z,7.70
2023-05-14T02:46:29.616Z,8.63
2023-05-14T02:48:57.684Z,8.97
2023-05-14T02:51:26.500Z,8.23
2023-05-14T02:53:54.325Z,8.90
2023-05-14T02:56:22.318Z,8.37
2023-05-14T02:58:50.097Z,8.40
2023-05-14T03:01:18.803Z,7.90
2023-05-14T03:03:49.870Z,7.83
2023-05-14T03:06:18.186Z,8.10
2023-05-14T03:08:46.181Z,7.80
2023-05-14T03:11:14.047Z,7.33
2023-05-14T03:13:41.836Z,7.60
2023-05-14T03:16:09.655Z,7.53
2023-05-14T03:18:37.519Z,7.87
2023-05-14T03:21:06.708Z,7.70
2023-05-14T03:23:35.166Z,7.47
2023-05-14T03:26:03.858Z,7.40
2023-05-14T03:28:31.961Z,8.00
2023-05-14T03:30:59.929Z,7.82
2023-05-14T03:33:27.751Z,7.25
2023-05-14T03:35:55.537Z,8.25
2023-05-14T03:38:24.650Z,7.60
2023-05-14T03:40:52.660Z,7.32
2023-05-14T03:43:20.468Z,6.72
2023-05-14T03:45:52.222Z,8.00
2023-05-14T03:48:20.586Z,7.35
2023-05-14T03:50:48.482Z,8.05
2023-05-14T03:53:16.783Z,7.88
2023-05-14T03:55:46.177Z,7.47
2023-05-14T03:58:14.722Z,8.32
2023-05-14T04:00:42.730Z,7.65
2023-05-14T04:03:11.265Z,7.28
2023-05-14T04:05:43.104Z,8.45
2023-05-14T04:08:10.822Z,7.25
2023-05-14T04:10:38.580Z,7.85
2023-05-14T04:13:08.203Z,7.45
2023-05-14T04:15:39.244Z,6.90
2023-05-14T04:18:07.426Z,7.07
2023-05-14T04:20:35.382Z,7.32
2023-05-14T04:23:03.125Z,7.68
2023-05-14T04:25:31.004Z,7.85
2023-05-14T04:27:59.060Z,7.53
2023-05-14T04:30:28.442Z,7.35
2023-05-14T04:32:56.404Z,7.43
2023-05-14T04:35:25.202Z,7.40
2023-05-14T04:37:53.277Z,8.05
2023-05-14T04:40:22.977Z,7.20
2023-05-14T04:42:51.121Z,7.65
2023-05-14T04:45:19.210Z,7.25
2023-05-14T04:47:48.552Z,7.68
2023-05-14T04:50:16.767Z,7.57
2023-05-14T04:52:44.564Z,7.45
2023-05-14T04:55:12.299Z,8.15
2023-05-14T04:57:40.081Z,7.88
2023-05-14T05:00:10.178Z,7.10
2023-05-14T05:02:38.093Z,7.20
2023-05-14T05:05:07.768Z,7.65
2023-05-14T05:07:36.942Z,7.32
2023-05-14T05:10:04.879Z,7.88
2023-05-14T05:12:32.706Z,7.43
2023-05-14T05:15:00.581Z,7.25
2023-05-14T05:17:28.489Z,6.25
2023-05-14T05:19:56.320Z,6.30
2023-05-14T05:22:25.783Z,5.90
2023-05-14T05:24:53.563Z,6.25
2023-05-14T05:27:22.090Z,6.70
2023-05-14T05:29:49.780Z,6.53
2023-05-14T05:32:17.646Z,6.53
2023-05-14T05:34:45.478Z,7.00
2023-05-14T05:37:14.883Z,5.93
2023-05-14T05:39:44.263Z,5.95
2023-05-14T05:42:11.925Z,6.65
2023-05-14T05:44:39.691Z,6.32
2023-05-14T05:47:07.622Z,6.00
2023-05-14T05:49:36.846Z,6.13
2023-05-14T05:52:05.097Z,5.30
2023-05-14T05:54:33.303Z,5.32
2023-05-14T05:57:02.503Z,4.82
2023-05-14T05:59:30.224Z,4.72
2023-05-14T06:01:58.009Z,4.70
2023-05-14T06:04:25.947Z,4.18
2023-05-14T06:06:54.252Z,4.55
2023-05-14T06:09:22.140Z,4.28
2023-05-14T06:11:49.946Z,4.13
2023-05-14T06:14:19.271Z,4.05
2023-05-14T06:16:47.138Z,3.60
2023-05-14T06:19:15.256Z,3.92
2023-05-14T06:21:43.070Z,4.10
2023-05-14T06:24:11.389Z,3.70
2023-05-14T06:26:39.064Z,3.42
2023-05-14T06:29:06.889Z,4.07
2023-05-14T06:31:36.078Z,3.72
2023-05-14T06:34:03.995Z,3.58
2023-05-14T06:36:31.712Z,4.20
2023-05-14T06:38:59.421Z,4.03
2023-05-14T06:41:27.179Z,3.85
2023-05-14T06:43:55.247Z,3.85
2023-05-14T06:46:23.059Z,4.05
2023-05-14T06:48:52.378Z,4.15
2023-05-14T06:51:20.183Z,3.70
2023-05-14T06:53:48.804Z,3.72
2023-05-14T06:56:16.595Z,3.72
2023-05-14T06:58:44.313Z,3.72
2023-05-14T07:01:12.180Z,3.30
2023-05-14T07:03:40.170Z,3.92
2023-05-14T07:06:10.357Z,3.92
2023-05-14T07:08:40.216Z,3.50
2023-05-14T07:11:08.188Z,3.25
2023-05-14T07:13:36.291Z,3.08
2023-05-14T07:16:03.981Z,3.10
2023-05-14T07:18:31.763Z,3.97
2023-05-14T07:20:59.491Z,3.05
2023-05-14T07:23:28.786Z,2.90
2023-05-14T07:25:56.550Z,3.50
2023-05-14T07:28:24.233Z,2.50
2023-05-14T07:30:52.016Z,3.25
2023-05-14T07:33:19.782Z,2.97
2023-05-14T07:35:47.610Z,3.10
2023-05-14T07:38:15.827Z,2.95
2023-05-14T07:40:44.992Z,3.53
2023-05-14T07:43:12.850Z,3.42
2023-05-14T07:45:40.838Z,3.05
2023-05-14T07:48:09.010Z,2.92
2023-05-14T07:50:37.994Z,3.20
2023-05-14T07:53:05.717Z,2.90
2023-05-14T07:55:33.412Z,3.15
2023-05-14T07:58:02.668Z,3.38
2023-05-14T08:00:30.724Z,3.28
2023-05-14T08:02:58.720Z,3.40
2023-05-14T08:05:26.682Z,3.10
2023-05-14T08:07:54.631Z,3.90
2023-05-14T08:10:22.516Z,3.05
2023-05-14T08:12:51.605Z,3.22
2023-05-14T08:15:21.042Z,3.05
2023-05-14T08:17:48.816Z,3.20
2023-05-14T08:20:16.578Z,2.90
2023-05-14T08:22:44.387Z,3.10
2023-05-14T08:25:12.566Z,2.83
2023-05-14T08:27:41.203Z,2.83
2023-05-14T08:30:09.755Z,2.40
2023-05-14T08:32:39.411Z,3.20
2023-05-14T08:35:08.288Z,2.83
2023-05-14T08:37:36.045Z,2.80
2023-05-14T08:40:04.066Z,2.85
2023-05-14T08:42:32.664Z,2.75
2023-05-14T08:45:03.140Z,2.80
2023-05-14T08:47:32.015Z,2.53
2023-05-14T08:50:04.436Z,2.58
2023-05-14T08:52:32.482Z,2.80
2023-05-14T08:55:01.412Z,2.85
2023-05-14T08:57:31.187Z,2.50
2023-05-14T09:00:01.297Z,2.78
2023-05-14T09:02:30.283Z,2.20
2023-05-14T09:05:01.948Z,2.70
2023-05-14T09:07:30.108Z,2.55
2023-05-14T09:09:58.057Z,3.08
2023-05-14T09:12:26.231Z,3.30
2023-05-14T09:14:54.163Z,2.75
2023-05-14T09:17:22.211Z,3.08
2023-05-14T09:19:53.161Z,2.88
2023-05-14T09:22:23.065Z,3.00
2023-05-14T09:25:05.066Z,2.72
2023-05-14T09:27:34.218Z,2.58
2023-05-14T09:30:10.817Z,2.40
2023-05-14T09:32:46.211Z,3.05
2023-05-14T09:35:17.650Z,2.92
2023-05-14T09:37:48.639Z,2.85
2023-05-14T09:40:17.642Z,2.30
2023-05-14T09:42:45.626Z,3.08
2023-05-14T09:45:13.774Z,2.42
2023-05-14T09:47:41.730Z,2.78
2023-05-14T09:50:10.050Z,2.47
2023-05-14T09:52:38.431Z,3.30
2023-05-14T09:55:09.024Z,2.60
2023-05-14T09:57:37.177Z,2.58
2023-05-14T10:00:05.851Z,3.30
2023-05-14T10:02:38.819Z,2.95
2023-05-14T10:05:07.981Z,2.38
2023-05-14T10:07:41.479Z,2.78
2023-05-14T10:10:16.424Z,2.63
2023-05-14T10:12:48.537Z,2.45
2023-05-14T10:15:22.654Z,2.50
2023-05-14T10:17:55.752Z,2.30
2023-05-14T10:20:24.682Z,2.42
2023-05-14T10:22:52.976Z,2.33
2023-05-14T10:25:23.202Z,2.13
2023-05-14T10:28:02.050Z,2.40
2023-05-14T10:30:37.141Z,2.58
2023-05-14T10:33:09.641Z,2.15
2023-05-14T10:36:00.043Z,2.60
2023-05-14T10:38:29.233Z,2.38
2023-05-14T10:41:06.257Z,2.53
2023-05-14T10:43:39.971Z,2.92
2023-05-14T10:46:09.633Z,2.97
2023-05-14T10:48:38.737Z,2.35
2023-05-14T10:51:09.248Z,2.67
2023-05-14T10:53:39.237Z,3.00
2023-05-14T10:56:10.696Z,3.20
2023-05-14T10:58:41.630Z,2.30
2023-05-14T11:01:11.216Z,2.50
2023-05-14T11:03:44.887Z,2.47
2023-05-14T11:06:14.933Z,2.70
2023-05-14T11:08:43.786Z,2.60
2023-05-14T11:11:13.045Z,2.40
2023-05-14T11:13:42.252Z,2.55
2023-05-14T11:16:22.950Z,2.80
2023-05-14T11:18:55.279Z,2.67
2023-05-14T11:21:23.333Z,2.67
2023-05-14T11:23:51.596Z,2.40
2023-05-14T11:26:21.829Z,2.60
2023-05-14T11:28:49.987Z,2.60
2023-05-14T11:31:18.001Z,2.65
2023-05-14T11:33:45.886Z,2.58
2023-05-14T11:36:13.995Z,2.45
2023-05-14T11:38:48.741Z,3.13
2023-05-14T11:41:16.519Z,2.80
2023-05-14T11:43:45.765Z,2.72
2023-05-14T11:46:18.068Z,2.35
2023-05-14T11:48:46.003Z,3.03
2023-05-14T11:51:14.022Z,2.75
2023-05-14T11:53:42.101Z,2.97
2023-05-14T11:56:10.164Z,2.65
2023-05-14T11:58:38.089Z,2.85
2023-05-14T12:01:07.426Z,2.40
2023-05-14T12:03:36.313Z,2.70
2023-05-14T12:06:08.208Z,2.80
2023-05-14T12:08:36.278Z,2.80
2023-05-14T12:11:04.553Z,2.67
2023-05-14T12:13:35.432Z,2.50
2023-05-14T12:16:03.894Z,2.33
2023-05-14T12:18:34.229Z,2.38
2023-05-14T12:21:04.449Z,2.47
2023-05-14T12:23:33.053Z,2.83
2023-05-14T12:26:02.910Z,2.95
2023-05-14T12:28:31.028Z,2.65
2023-05-14T12:30:59.647Z,2.72
2023-05-14T12:33:28.501Z,2.33
2023-05-14T12:36:07.414Z,2.58
2023-05-14T12:38:47.981Z,2.20
2023-05-14T12:41:15.801Z,2.33
2023-05-14T12:43:44.635Z,2.60
2023-05-14T12:46:12.651Z,2.78
2023-05-14T12:48:40.536Z,2.58
2023-05-14T12:51:09.742Z,2.58
2023-05-14T12:53:37.596Z,2.40
2023-05-14T12:56:06.107Z,2.53
2023-05-14T12:58:33.891Z,2.60
2023-05-14T13:01:01.911Z,2.47
2023-05-14T13:03:29.750Z,2.83
2023-05-14T13:05:57.589Z,2.95
2023-05-14T13:08:27.351Z,2.85
2023-05-14T13:10:56.480Z,3.10
2023-05-14T13:13:24.886Z,2.70
2023-05-14T13:15:53.941Z,3.15
2023-05-14T13:18:21.856Z,3.08
2023-05-14T13:20:53.164Z,2.72
2023-05-14T13:23:21.033Z,2.55
2023-05-14T13:25:50.781Z,2.70
2023-05-14T13:28:19.628Z,2.70
2023-05-14T13:31:07.736Z,3.08
2023-05-14T13:33:37.097Z,2.67
2023-05-14T13:36:05.797Z,2.72
2023-05-14T13:38:34.322Z,2.80
2023-05-14T13:41:03.861Z,2.78
2023-05-14T13:43:32.075Z,2.97
2023-05-14T13:46:00.306Z,2.60
2023-05-14T13:48:28.785Z,2.65
2023-05-14T13:50:56.698Z,2.90
2023-05-14T13:53:26.137Z,3.28
2023-05-14T13:55:58.107Z,2.70
2023-05-14T13:58:28.194Z,3.00
2023-05-14T14:00:56.654Z,2.72
2023-05-14T14:03:24.525Z,3.05
2023-05-14T14:05:52.728Z,2.50
2023-05-14T14:08:23.314Z,2.78
2023-05-14T14:10:52.022Z,2.78
2023-05-14T14:13:21.197Z,2.63
2023-05-14T14:15:51.166Z,2.63
2023-05-14T14:18:19.157Z,2.85
2023-05-14T14:20:46.897Z,3.00
2023-05-14T14:23:16.311Z,2.65
2023-05-14T14:25:44.370Z,2.75
2023-05-14T14:28:12.486Z,2.47
2023-05-14T14:30:40.556Z,2.60
2023-05-14T14:33:10.057Z,2.70
2023-05-14T14:35:37.939Z,2.55
2023-05-14T14:38:05.720Z,2.60
2023-05-14T14:40:34.351Z,2.33
2023-05-14T14:43:02.303Z,2.67
2023-05-14T14:45:30.221Z,2.50
2023-05-14T14:48:31.445Z,2.90
2023-05-14T14:50:59.332Z,2.60
2023-05-14T14:53:27.125Z,2.80
2023-05-14T14:55:55.136Z,2.42
2023-05-14T14:58:23.653Z,3.08
2023-05-14T15:00:53.987Z,3.17
2023-05-14T15:03:22.733Z,2.58
2023-05-14T15:05:53.260Z,2.80
2023-05-14T15:08:21.840Z,3.30
2023-05-14T15:10:49.716Z,2.90
2023-05-14T15:13:17.655Z,2.97
2023-05-14T15:15:45.540Z,2.30
2023-05-14T15:18:13.489Z,3.00
2023-05-14T15:20:41.326Z,2.88
2023-05-14T15:23:11.544Z,2.20
2023-05-14T15:25:40.366Z,2.63
2023-05-14T15:28:08.124Z,2.60
2023-05-14T15:30:36.264Z,3.10
2023-05-14T15:33:04.251Z,3.05
2023-05-14T15:35:32.161Z,2.63
2023-05-14T15:38:00.025Z,2.65
2023-05-14T15:40:29.582Z,3.00
2023-05-14T15:42:57.433Z,2.40
2023-05-14T15:45:25.318Z,2.60
2023-05-14T15:47:53.208Z,2.42
2023-05-14T15:50:21.549Z,2.63
2023-05-14T15:52:49.793Z,2.83
2023-05-14T15:55:17.788Z,2.60
2023-05-14T15:57:47.081Z,2.58
2023-05-14T16:00:15.528Z,2.83
2023-05-14T16:02:43.545Z,2.63
2023-05-14T16:05:11.436Z,2.70
2023-05-14T16:07:39.503Z,3.05
2023-05-14T16:10:08.380Z,2.50
2023-05-14T16:12:36.378Z,2.60
2023-05-14T16:15:07.854Z,2.53
2023-05-14T16:17:35.992Z,2.50
2023-05-14T16:20:04.839Z,2.80
2023-05-14T16:22:34.676Z,2.67
2023-05-14T16:25:03.530Z,2.40
2023-05-14T16:27:31.616Z,2.50
2023-05-14T16:29:59.474Z,2.60
2023-05-14T16:32:28.792Z,2.78
2023-05-14T16:34:56.726Z,2.70
2023-05-14T16:37:26.598Z,2.50
2023-05-14T16:39:54.923Z,2.60
2023-05-14T16:42:22.742Z,2.53
2023-05-14T16:44:50.528Z,2.70
2023-05-14T16:47:18.378Z,2.85
2023-05-14T16:49:47.488Z,2.90
2023-05-14T16:52:15.415Z,2.85
2023-05-14T16:54:43.216Z,2.75
2023-05-14T16:57:11.047Z,2.60
2023-05-14T16:59:38.835Z,2.80
2023-05-14T17:02:07.064Z,2.53
2023-05-14T17:04:38.783Z,2.75
2023-05-14T17:07:08.129Z,2.40
2023-05-14T17:09:35.971Z,3.35
2023-05-14T17:12:03.911Z,2.75
2023-05-14T17:14:31.772Z,2.78
2023-05-14T17:16:59.526Z,2.95
2023-05-14T17:19:27.284Z,2.55
2023-05-14T17:21:55.102Z,3.10
2023-05-14T17:24:24.278Z,2.70
2023-05-14T17:26:52.063Z,2.80
2023-05-14T17:29:19.994Z,2.63
2023-05-14T17:31:48.258Z,2.92
2023-05-14T17:34:16.246Z,2.60
2023-05-14T17:36:44.089Z,2.85
2023-05-14T17:39:11.888Z,2.63
2023-05-14T17:41:41.992Z,2.90
2023-05-14T17:44:12.084Z,2.40
2023-05-14T17:46:41.577Z,2.70
2023-05-14T17:49:09.614Z,2.75
2023-05-14T17:51:37.356Z,2.75
2023-05-14T17:54:05.281Z,2.55
2023-05-14T17:56:33.235Z,2.88
2023-05-14T17:59:02.751Z,3.13
2023-05-14T18:01:30.809Z,3.42
2023-05-14T18:03:58.839Z,4.72
2023-05-14T18:06:26.730Z,3.75
2023-05-14T18:08:54.631Z,3.38
2023-05-14T18:11:22.443Z,3.45
2023-05-14T18:13:50.255Z,4.70
2023-05-14T18:16:19.514Z,3.35
2023-05-14T18:18:47.713Z,3.03
2023-05-14T18:21:16.284Z,3.40
2023-05-14T18:23:44.392Z,3.50
2023-05-14T18:26:12.238Z,3.90
2023-05-14T18:28:40.093Z,3.65
2023-05-14T18:31:08.899Z,3.58
2023-05-14T18:33:38.232Z,3.72
2023-05-14T18:36:06.453Z,3.80
2023-05-14T18:38:34.206Z,3.60
2023-05-14T18:41:02.074Z,3.78
2023-05-14T18:43:29.998Z,3.78
2023-05-14T18:45:57.912Z,3.83
2023-05-14T18:48:26.349Z,3.72
2023-05-14T18:50:55.508Z,3.63
2023-05-14T18:53:23.274Z,3.28
2023-05-14T18:55:51.134Z,3.92
2023-05-14T18:58:18.982Z,4.25
2023-05-14T19:00:47.009Z,3.65
2023-05-14T19:03:15.177Z,3.67
2023-05-14T19:05:43.000Z,3.80
2023-05-14T19:08:12.112Z,3.40
2023-05-14T19:10:39.985Z,4.00
2023-05-14T19:13:10.402Z,5.75
2023-05-14T19:15:38.428Z,4.05
2023-05-14T19:18:06.445Z,5.95
2023-05-14T19:20:34.330Z,7.30
2023-05-14T19:23:02.041Z,8.85
2023-05-14T19:25:31.246Z,7.05
2023-05-14T19:28:01.536Z,6.38
2023-05-14T19:30:29.456Z,5.03
2023-05-14T19:32:58.226Z,4.32
2023-05-14T19:35:26.225Z,5.35
2023-05-14T19:37:54.079Z,6.45
2023-05-14T19:40:21.807Z,4.80
2023-05-14T19:42:51.128Z,4.95
2023-05-14T19:45:18.838Z,4.10
2023-05-14T19:47:46.704Z,3.95
2023-05-14T19:50:14.701Z,4.80
2023-05-14T19:52:42.480Z,4.82
2023-05-14T19:55:10.522Z,4.22
2023-05-14T19:57:38.989Z,5.20
2023-05-14T20:00:10.473Z,4.47
2023-05-14T20:02:40.932Z,4.40
2023-05-14T20:05:10.570Z,4.32
2023-05-14T20:07:40.394Z,4.05
2023-05-14T20:10:09.450Z,4.15
2023-05-14T20:12:37.274Z,3.80
2023-05-14T20:15:05.640Z,4.90
2023-05-14T20:17:34.777Z,4.72
2023-05-14T20:20:03.024Z,5.15
2023-05-14T20:22:30.784Z,6.30
2023-05-14T20:24:58.514Z,6.10
2023-05-14T20:27:26.303Z,5.22
2023-05-14T20:29:54.207Z,5.45
2023-05-14T20:32:24.736Z,5.35
2023-05-14T20:34:54.422Z,5.05
2023-05-14T20:37:23.959Z,5.22
2023-05-14T20:39:53.075Z,4.60
2023-05-14T20:42:21.074Z,5.10
2023-05-14T20:44:49.699Z,4.97
2023-05-14T20:47:20.366Z,4.57
2023-05-14T20:49:48.288Z,4.72
2023-05-14T20:52:17.843Z,4.90
2023-05-14T20:54:45.755Z,4.70
2023-05-14T20:57:15.256Z,4.68
2023-05-14T20:59:43.375Z,4.57
2023-05-14T21:02:11.826Z,4.90
2023-05-14T21:04:39.967Z,5.15
2023-05-14T21:07:07.971Z,6.82
2023-05-14T21:09:37.169Z,9.77
2023-05-14T21:12:05.613Z,6.82
2023-05-14T21:14:33.369Z,11.95
2023-05-14T21:17:01.181Z,9.48
2023-05-14T21:19:29.034Z,7.28
2023-05-14T21:21:56.718Z,8.30
2023-05-14T21:24:24.437Z,9.02
2023-05-14T21:26:53.751Z,11.77
2023-05-14T21:29:21.615Z,9.00
2023-05-14T21:31:50.199Z,7.10
2023-05-14T21:34:18.069Z,6.78
2023-05-14T21:36:46.814Z,6.35
2023-05-14T21:39:15.724Z,6.38
2023-05-14T21:41:43.554Z,6.65
2023-05-14T21:44:12.784Z,6.45
2023-05-14T21:46:40.536Z,5.80
2023-05-14T21:49:08.458Z,6.30
2023-05-14T21:51:36.231Z,5.85
2023-05-14T21:54:04.076Z,5.68
2023-05-14T21:56:32.108Z,5.72
2023-05-14T21:58:59.974Z,6.05
2023-05-14T22:01:29.424Z,5.82
2023-05-14T22:03:58.006Z,5.45
2023-05-14T22:06:26.177Z,5.43
2023-05-14T22:08:54.042Z,5.82
2023-05-14T22:11:22.370Z,5.72
2023-05-14T22:13:50.110Z,5.20
2023-05-14T22:16:17.956Z,5.70
2023-05-14T22:18:47.248Z,5.60
2023-05-14T22:21:15.129Z,6.00
2023-05-14T22:23:42.942Z,5.78
2023-05-14T22:26:10.691Z,5.78
2023-05-14T22:28:42.832Z,5.88
2023-05-14T22:31:10.977Z,5.72
2023-05-14T22:33:38.767Z,5.82
2023-05-14T22:36:08.763Z,5.88
2023-05-14T22:38:38.180Z,5.55
2023-05-14T22:41:06.044Z,5.55
2023-05-14T22:43:33.796Z,5.75
2023-05-14T22:46:01.700Z,5.30
2023-05-14T22:48:29.481Z,6.15
2023-05-14T22:50:57.206Z,5.60
2023-05-14T22:53:26.392Z,6.40
2023-05-14T22:55:54.138Z,5.60
2023-05-14T22:58:21.932Z,5.88
2023-05-14T23:00:49.697Z,6.28
2023-05-14T23:03:17.576Z,5.95
2023-05-14T23:05:45.361Z,5.65
2023-05-14T23:08:13.230Z,5.53
2023-05-14T23:10:42.387Z,5.45
2023-05-14T23:13:10.209Z,5.78
2023-05-14T23:15:38.778Z,5.88
2023-05-14T23:18:06.915Z,5.88
2023-05-14T23:20:34.721Z,6.22
2023-05-14T23:23:02.553Z,6.03
2023-05-14T23:25:30.391Z,6.03
2023-05-14T23:27:59.476Z,7.20
2023-05-14T23:30:27.272Z,7.43
2023-05-14T23:32:55.032Z,6.93
2023-05-14T23:35:23.090Z,6.43
2023-05-14T23:37:51.243Z,6.28
2023-05-14T23:40:21.351Z,6.25
2023-05-14T23:42:49.096Z,7.22
2023-05-14T23:45:18.397Z,6.85
2023-05-14T23:47:46.287Z,6.60
2023-05-14T23:50:14.121Z,5.90
2023-05-14T23:52:42.051Z,6.32
2023-05-14T23:55:10.738Z,7.20
2023-05-14T23:57:38.647Z,6.63
